createdAt,value
2019-04-20T00:01:03.383Z,5.10
2019-04-20T00:03:39.422Z,5.47
2019-04-20T00:06:03.530Z,5.13
2019-04-20T00:08:36.117Z,7.40
2019-04-20T00:11:10.606Z,5.87
2019-04-20T00:13:45.376Z,4.77
2019-04-20T00:16:04.258Z,5.27
2019-04-20T00:18:41.305Z,5.00
2019-04-20T00:21:22.691Z,5.60
2019-04-20T00:23:54.752Z,5.47
2019-04-20T00:27:04.459Z,4.60
2019-04-20T00:29:26.630Z,5.37
2019-04-20T00:31:49.261Z,4.60
2019-04-20T00:34:15.002Z,4.50
2019-04-20T00:36:37.221Z,6.03
2019-04-20T00:39:11.102Z,7.00
2019-04-20T00:41:44.061Z,5.17
2019-04-20T00:44:13.278Z,5.20
2019-04-20T00:46:53.518Z,4.00
2019-04-20T00:49:27.302Z,4.07
2019-04-20T00:52:07.646Z,4.07
2019-04-20T00:54:11.535Z,4.33
2019-04-20T00:56:41.331Z,5.93
2019-04-20T00:59:25.966Z,3.80
2019-04-20T01:02:02.032Z,4.63
2019-04-20T01:04:29.967Z,3.67
2019-04-20T01:07:01.573Z,4.00
2019-04-20T01:09:26.541Z,3.97
2019-04-20T01:11:56.615Z,3.87
2019-04-20T01:14:37.817Z,3.90
2019-04-20T01:17:00.486Z,5.03
2019-04-20T01:19:26.754Z,4.50
2019-04-20T01:22:03.735Z,4.23
2019-04-20T01:24:31.355Z,3.83
2019-04-20T01:27:00.842Z,7.00
2019-04-20T01:29:36.957Z,3.47
2019-04-20T01:32:12.481Z,4.53
2019-04-20T01:34:42.676Z,4.33
2019-04-20T01:37:14.370Z,4.20
2019-04-20T01:39:37.169Z,4.80
2019-04-20T01:42:00.416Z,3.70
2019-04-20T01:44:34.905Z,4.17
2019-04-20T01:47:03.187Z,4.13
2019-04-20T01:49:33.521Z,4.47
2019-04-20T01:52:11.002Z,3.83
2019-04-20T01:54:52.355Z,4.00
2019-04-20T01:57:29.944Z,4.10
2019-04-20T02:00:09.474Z,4.83
2019-04-20T02:02:45.012Z,6.07
2019-04-20T02:05:17.151Z,5.27
2019-04-20T02:07:47.571Z,4.40
2019-04-20T02:10:15.118Z,5.43
2019-04-20T02:12:48.893Z,4.67
2019-04-20T02:15:24.176Z,4.50
2019-04-20T02:17:59.489Z,5.20
2019-04-20T02:20:35.976Z,6.27
2019-04-20T02:23:01.617Z,5.83
2019-04-20T02:25:16.650Z,4.13
2019-04-20T02:27:50.508Z,4.33
2019-04-20T02:30:49.637Z,4.77
2019-04-20T02:33:34.425Z,4.70
2019-04-20T02:36:38.203Z,4.20
2019-04-20T02:39:22.488Z,4.20
2019-04-20T02:41:38.100Z,6.57
2019-04-20T02:46:31.795Z,3.80
2019-04-20T02:49:12.861Z,3.93
2019-04-20T02:56:40.522Z,3.93
2019-04-20T02:59:29.694Z,4.37
2019-04-20T03:01:36.620Z,4.70
2019-04-20T03:03:53.864Z,4.33
2019-04-20T03:06:30.266Z,3.60
2019-04-20T03:09:10.109Z,4.10
2019-04-20T03:11:49.929Z,4.60
2019-04-20T03:14:10.582Z,3.60
2019-04-20T03:16:37.266Z,4.10
2019-04-20T03:19:06.812Z,4.27
2019-04-20T03:21:45.347Z,3.53
2019-04-20T03:24:18.838Z,4.20
2019-04-20T03:26:50.588Z,4.07
2019-04-20T03:29:52.652Z,6.53
2019-04-20T03:35:10.112Z,4.87
2019-04-20T03:39:55.537Z,3.90
2019-04-20T03:42:11.133Z,3.80
2019-04-20T03:44:50.433Z,4.73
2019-04-20T03:47:17.394Z,4.00
2019-04-20T03:50:07.639Z,3.93
2019-04-20T03:52:36.737Z,4.37
2019-04-20T03:55:24.310Z,4.57
2019-04-20T03:57:58.780Z,3.97
2019-04-20T04:00:45.807Z,4.20
2019-04-20T04:03:47.543Z,3.93
2019-04-20T04:06:07.736Z,3.47
2019-04-20T04:08:32.866Z,2.93
2019-04-20T04:11:18.870Z,4.80
2019-04-20T04:13:26.951Z,4.63
2019-04-20T04:16:02.837Z,4.07
2019-04-20T04:18:34.745Z,3.50
2019-04-20T04:21:02.960Z,4.03
2019-04-20T04:23:45.477Z,3.73
2019-04-20T04:26:20.373Z,4.43
2019-04-20T04:28:46.337Z,3.47
2019-04-20T04:31:17.635Z,6.20
2019-04-20T04:33:55.977Z,4.20
2019-04-20T04:36:17.803Z,4.33
2019-04-20T04:38:55.210Z,5.63
2019-04-20T04:41:22.828Z,7.67
2019-04-20T04:43:49.930Z,4.03
2019-04-20T04:46:03.922Z,4.13
2019-04-20T04:48:37.047Z,4.13
2019-04-20T04:51:10.438Z,3.40
2019-04-20T04:53:44.226Z,4.80
2019-04-20T04:56:09.533Z,4.77
2019-04-20T04:58:36.175Z,3.83
2019-04-20T05:01:12.713Z,4.27
2019-04-20T05:03:58.114Z,3.47
2019-04-20T05:06:26.426Z,3.40
2019-04-20T05:08:49.781Z,4.53
2019-04-20T05:11:15.208Z,3.50
2019-04-20T05:13:52.876Z,4.23
2019-04-20T05:16:37.452Z,3.90
2019-04-20T05:19:10.512Z,4.30
2019-04-20T05:21:49.875Z,3.70
2019-04-20T05:24:22.647Z,3.60
2019-04-20T05:27:07.233Z,4.47
2019-04-20T05:29:24.650Z,4.20
2019-04-20T05:31:53.483Z,4.13
2019-04-20T05:34:38.985Z,5.33
2019-04-20T05:37:17.704Z,8.10
2019-04-20T05:39:38.267Z,4.27
2019-04-20T05:42:13.280Z,4.50
2019-04-20T05:44:46.101Z,5.10
2019-04-20T05:47:13.037Z,6.93
2019-04-20T05:49:41.977Z,3.60
2019-04-20T05:52:25.392Z,6.33
2019-04-20T05:54:49.333Z,4.37
2019-04-20T05:57:21.297Z,4.20
2019-04-20T05:59:51.683Z,3.77
2019-04-20T06:02:18.432Z,4.60
2019-04-20T06:05:10.188Z,4.87
2019-04-20T06:07:37.207Z,7.47
2019-04-20T06:10:18.924Z,4.60
2019-04-20T06:12:41.510Z,4.63
2019-04-20T06:15:18.079Z,5.40
2019-04-20T06:18:13.619Z,5.83
2019-04-20T06:20:48.429Z,4.43
2019-04-20T06:23:47.107Z,4.23
2019-04-20T06:26:33.548Z,3.83
2019-04-20T06:28:38.753Z,4.20
2019-04-20T06:31:18.009Z,5.43
2019-04-20T06:34:27.738Z,4.43
2019-04-20T06:36:57.332Z,4.20
2019-04-20T06:39:19.968Z,3.90
2019-04-20T06:42:06.967Z,4.63
2019-04-20T06:49:58.383Z,5.20
2019-04-20T06:52:43.833Z,4.30
2019-04-20T06:55:19.873Z,5.47
2019-04-20T07:00:22.925Z,5.60
2019-04-20T07:02:59.275Z,4.53
2019-04-20T07:05:19.010Z,6.60
2019-04-20T07:13:13.149Z,6.30
2019-04-20T07:16:13.785Z,4.57
2019-04-20T07:19:04.819Z,5.20
2019-04-20T07:22:07.221Z,5.40
2019-04-20T07:24:28.421Z,4.97
2019-04-20T07:26:55.506Z,5.10
2019-04-20T07:29:25.929Z,6.50
2019-04-20T07:31:55.276Z,6.63
2019-04-20T07:34:26.435Z,5.17
2019-04-20T07:37:28.191Z,5.77
2019-04-20T07:39:33.161Z,5.80
2019-04-20T07:42:10.849Z,9.40
2019-04-20T07:44:47.220Z,6.80
2019-04-20T07:47:16.664Z,6.80
2019-04-20T07:49:42.057Z,6.37
2019-04-20T07:51:52.602Z,7.23
2019-04-20T07:54:47.641Z,6.00
2019-04-20T07:57:10.187Z,6.83
2019-04-20T07:59:32.586Z,5.47
2019-04-20T08:02:47.159Z,5.00
2019-04-20T08:05:10.616Z,6.83
2019-04-20T08:07:39.108Z,7.13
2019-04-20T08:10:04.519Z,10.60
2019-04-20T08:12:56.961Z,7.43
2019-04-20T08:15:29.758Z,7.67
2019-04-20T08:17:56.910Z,8.80
2019-04-20T08:20:23.399Z,8.40
2019-04-20T08:22:53.487Z,6.87
2019-04-20T08:25:14.266Z,5.83
2019-04-20T08:28:01.467Z,9.17
2019-04-20T08:30:57.094Z,5.90
2019-04-20T08:33:30.853Z,8.67
2019-04-20T08:36:07.433Z,7.70
2019-04-20T08:39:08.255Z,6.07
2019-04-20T08:40:59.481Z,8.13
2019-04-20T08:43:42.554Z,10.67
2019-04-20T08:46:05.290Z,6.23
2019-04-20T08:48:34.800Z,7.20
2019-04-20T08:51:06.133Z,7.17
2019-04-20T08:53:36.988Z,9.97
2019-04-20T08:55:56.991Z,7.87
2019-04-20T08:58:15.976Z,7.20
2019-04-20T09:00:49.958Z,7.23
2019-04-20T09:03:23.529Z,7.40
2019-04-20T09:05:59.369Z,7.10
2019-04-20T09:08:24.096Z,8.03
2019-04-20T09:11:05.935Z,7.27
2019-04-20T09:13:26.892Z,6.83
2019-04-20T09:15:49.372Z,7.43
2019-04-20T09:18:34.384Z,7.20
2019-04-20T09:21:03.345Z,8.43
2019-04-20T09:23:46.894Z,6.73
2019-04-20T09:26:16.288Z,8.30
2019-04-20T09:28:48.319Z,7.10
2019-04-20T09:31:29.764Z,10.03
2019-04-20T09:34:07.461Z,11.43
2019-04-20T09:36:40.284Z,6.87
2019-04-20T09:39:29.523Z,8.20
2019-04-20T09:42:01.201Z,9.97
2019-04-20T09:44:31.524Z,7.17
2019-04-20T09:47:00.458Z,7.87
2019-04-20T09:49:40.184Z,7.87
2019-04-20T09:52:13.269Z,7.27
2019-04-20T09:54:49.471Z,7.60
2019-04-20T09:57:22.848Z,8.87
2019-04-20T09:59:49.681Z,10.60
2019-04-20T10:02:08.725Z,7.67
2019-04-20T10:04:31.788Z,9.13
2019-04-20T10:07:06.679Z,8.17
2019-04-20T10:09:37.491Z,10.50
2019-04-20T10:12:02.050Z,8.33
2019-04-20T10:14:31.095Z,8.70
2019-04-20T10:17:02.004Z,9.47
2019-04-20T10:19:34.682Z,7.30
2019-04-20T10:22:02.503Z,7.30
2019-04-20T10:24:32.797Z,6.50
2019-04-20T10:27:03.058Z,6.00
2019-04-20T10:29:33.470Z,7.07
2019-04-20T10:32:13.723Z,5.67
2019-04-20T10:34:39.028Z,5.63
2019-04-20T10:37:11.561Z,6.30
2019-04-20T10:39:40.647Z,6.00
2019-04-20T10:42:10.084Z,8.07
2019-04-20T10:44:39.055Z,5.93
2019-04-20T10:47:09.073Z,5.57
2019-04-20T10:49:38.463Z,5.50
2019-04-20T10:52:07.674Z,6.47
2019-04-20T10:54:36.597Z,5.60
2019-04-20T10:57:07.877Z,6.80
2019-04-20T10:59:37.393Z,5.77
2019-04-20T11:02:07.789Z,3.80
2019-04-20T11:04:36.849Z,4.10
2019-04-20T11:07:05.798Z,3.83
2019-04-20T11:09:34.618Z,6.20
2019-04-20T11:12:04.185Z,6.07
2019-04-20T11:14:36.657Z,5.03
2019-04-20T11:17:04.437Z,4.23
2019-04-20T11:19:33.682Z,4.00
2019-04-20T11:22:04.191Z,4.33
2019-04-20T11:24:34.469Z,4.27
2019-04-20T11:27:04.523Z,4.67
2019-04-20T11:29:33.939Z,4.67
2019-04-20T11:32:03.219Z,5.53
2019-04-20T11:34:35.366Z,4.97
2019-04-20T11:37:03.544Z,4.60
2019-04-20T11:39:35.028Z,4.50
2019-04-20T11:42:05.606Z,4.67
2019-04-20T11:44:36.478Z,5.13
2019-04-20T11:47:08.600Z,6.17
2019-04-20T11:49:37.613Z,5.73
2019-04-20T11:52:07.738Z,5.17
2019-04-20T11:54:36.830Z,9.90
2019-04-20T11:57:06.951Z,6.27
2019-04-20T11:59:37.101Z,5.53
2019-04-20T12:02:25.043Z,7.20
2019-04-20T12:05:10.227Z,5.97
2019-04-20T12:07:26.794Z,5.50
2019-04-20T12:10:00.072Z,6.40
2019-04-20T12:12:34.984Z,6.37
2019-04-20T12:14:57.058Z,5.63
2019-04-20T12:17:26.002Z,6.10
2019-04-20T12:19:55.537Z,5.70
2019-04-20T12:22:24.586Z,6.57
2019-04-20T12:24:54.096Z,7.17
2019-04-20T12:27:23.133Z,8.00
2019-04-20T12:29:52.103Z,7.90
2019-04-20T12:32:21.809Z,5.73
2019-04-20T12:34:50.788Z,6.37
2019-04-20T12:37:27.036Z,6.37
2019-04-20T12:39:57.375Z,6.87
2019-04-20T12:42:26.373Z,7.60
2019-04-20T12:44:55.673Z,5.57
2019-04-20T12:47:25.761Z,6.17
2019-04-20T12:49:55.745Z,7.43
2019-04-20T12:52:26.203Z,5.87
2019-04-20T12:54:56.831Z,6.47
2019-04-20T12:57:26.825Z,7.33
2019-04-20T12:59:57.190Z,5.10
2019-04-20T13:02:27.241Z,7.83
2019-04-20T13:04:57.377Z,4.70
2019-04-20T13:07:26.877Z,4.00
2019-04-20T13:09:56.927Z,5.20
2019-04-20T13:12:32.180Z,5.93
2019-04-20T13:15:32.073Z,5.20
2019-04-20T13:18:03.238Z,4.80
2019-04-20T13:20:32.446Z,7.17
2019-04-20T13:23:03.855Z,4.67
2019-04-20T13:25:32.899Z,4.13
2019-04-20T13:28:03.063Z,5.10
2019-04-20T13:30:32.309Z,5.13
2019-04-20T13:33:01.725Z,5.70
2019-04-20T13:35:31.997Z,5.63
2019-04-20T13:38:02.376Z,4.80
2019-04-20T13:40:31.366Z,5.20
2019-04-20T13:43:01.421Z,5.27
2019-04-20T13:45:31.024Z,4.60
2019-04-20T13:48:04.147Z,5.90
2019-04-20T13:50:33.911Z,7.03
2019-04-20T13:53:03.624Z,5.77
2019-04-20T13:55:32.669Z,6.93
2019-04-20T13:58:13.892Z,5.10
2019-04-20T14:00:58.971Z,6.00
2019-04-20T14:03:30.121Z,5.10
2019-04-20T14:06:00.658Z,6.03
2019-04-20T14:08:31.436Z,5.43
2019-04-20T14:11:00.528Z,5.67
2019-04-20T14:13:36.865Z,5.57
2019-04-20T14:16:00.903Z,6.37
2019-04-20T14:18:31.047Z,4.90
2019-04-20T14:21:00.509Z,5.03
2019-04-20T14:23:32.831Z,4.90
2019-04-20T14:26:02.984Z,6.23
2019-04-20T14:28:33.204Z,6.67
2019-04-20T14:31:03.679Z,4.13
2019-04-20T14:33:32.811Z,4.50
2019-04-20T14:36:03.348Z,4.60
2019-04-20T14:38:32.390Z,4.00
2019-04-20T14:41:02.237Z,4.20
2019-04-20T14:43:32.955Z,6.50
2019-04-20T14:46:03.056Z,5.23
2019-04-20T14:48:32.021Z,4.63
2019-04-20T14:51:01.527Z,4.90
2019-04-20T14:53:31.580Z,4.50
2019-04-20T14:56:01.742Z,4.57
2019-04-20T14:58:47.128Z,4.70
2019-04-20T15:01:26.897Z,6.07
2019-04-20T15:04:00.209Z,6.77
2019-04-20T15:06:27.543Z,4.63
2019-04-20T15:08:56.775Z,4.27
2019-04-20T15:11:26.874Z,5.10
2019-04-20T15:13:56.429Z,5.70
2019-04-20T15:16:26.501Z,4.37
2019-04-20T15:19:13.715Z,6.70
2019-04-20T15:21:47.438Z,4.67
2019-04-20T15:24:17.778Z,6.40
2019-04-20T15:26:46.735Z,4.47
2019-04-20T15:29:15.724Z,4.73
2019-04-20T15:31:45.904Z,5.37
2019-04-20T15:34:15.096Z,4.57
2019-04-20T15:36:44.288Z,4.20
2019-04-20T15:39:14.819Z,4.50
2019-04-20T15:41:45.251Z,4.37
2019-04-20T15:44:15.358Z,4.90
2019-04-20T15:46:45.512Z,4.47
2019-04-20T15:49:15.741Z,5.23
2019-04-20T15:51:46.013Z,3.83
2019-04-20T15:54:15.701Z,4.07
2019-04-20T15:56:52.430Z,4.60
2019-04-20T15:59:15.112Z,3.57
2019-04-20T16:01:49.290Z,4.97
2019-04-20T16:04:39.437Z,4.17
2019-04-20T16:07:08.438Z,5.17
2019-04-20T16:09:37.909Z,4.33
2019-04-20T16:12:07.129Z,3.90
2019-04-20T16:14:37.542Z,6.40
2019-04-20T16:17:08.672Z,4.17
2019-04-20T16:19:46.146Z,3.93
2019-04-20T16:22:07.981Z,3.67
2019-04-20T16:24:40.764Z,3.80
2019-04-20T16:27:34.239Z,3.90
2019-04-20T16:30:05.517Z,3.83
2019-04-20T16:32:34.672Z,3.83
2019-04-20T16:35:04.535Z,4.70
2019-04-20T16:37:34.768Z,6.83
2019-04-20T16:40:06.032Z,5.10
2019-04-20T16:42:38.476Z,4.67
2019-04-20T16:45:07.354Z,5.03
2019-04-20T16:47:36.625Z,4.23
2019-04-20T16:50:06.895Z,3.50
2019-04-20T16:52:36.826Z,5.37
2019-04-20T16:55:06.271Z,4.30
2019-04-20T16:57:35.582Z,4.23
2019-04-20T17:00:05.464Z,4.53
2019-04-20T17:02:36.142Z,3.97
2019-04-20T17:05:05.548Z,3.93
2019-04-20T17:07:39.036Z,3.53
2019-04-20T17:10:09.661Z,6.63
2019-04-20T17:12:39.977Z,6.07
2019-04-20T17:15:11.649Z,4.37
2019-04-20T17:17:40.775Z,4.70
2019-04-20T17:20:11.624Z,4.63
2019-04-20T17:22:40.540Z,4.20
2019-04-20T17:25:10.110Z,3.17
2019-04-20T17:27:59.483Z,4.90
2019-04-20T17:30:54.950Z,4.27
2019-04-20T17:33:33.783Z,4.33
2019-04-20T17:36:10.917Z,4.00
2019-04-20T17:38:37.690Z,3.27
2019-04-20T17:41:29.265Z,3.63
2019-04-20T17:43:56.748Z,5.23
2019-04-20T17:46:17.399Z,4.03
2019-04-20T17:48:45.138Z,4.70
2019-04-20T17:51:27.764Z,3.50
2019-04-20T17:54:06.705Z,3.30
2019-04-20T17:56:38.419Z,6.13
2019-04-20T17:59:08.110Z,4.33
2019-04-20T18:02:05.476Z,3.47
2019-04-20T18:04:57.494Z,4.03
2019-04-20T18:07:10.949Z,4.07
2019-04-20T18:09:50.407Z,4.27
2019-04-20T18:12:03.319Z,4.00
2019-04-20T18:14:42.912Z,3.83
2019-04-20T18:17:21.412Z,5.00
2019-04-20T18:19:47.034Z,4.90
2019-04-20T18:22:16.120Z,3.80
2019-04-20T18:25:07.622Z,5.30
2019-04-20T18:27:39.960Z,4.57
2019-04-20T18:30:07.110Z,3.20
2019-04-20T18:32:25.333Z,3.43
2019-04-20T18:35:04.416Z,3.87
2019-04-20T18:37:32.660Z,5.13
2019-04-20T18:40:06.161Z,4.03
2019-04-20T18:42:37.190Z,6.43
2019-04-20T18:45:23.111Z,3.73
2019-04-20T18:47:53.969Z,4.20
2019-04-20T18:50:14.042Z,4.67
2019-04-20T18:52:36.046Z,4.10
2019-04-20T18:55:13.138Z,4.00
2019-04-20T18:57:37.911Z,6.20
2019-04-20T19:00:17.558Z,6.03
2019-04-20T19:02:44.522Z,5.67
2019-04-20T19:05:11.412Z,6.10
2019-04-20T19:07:50.651Z,7.07
2019-04-20T19:10:18.631Z,7.27
2019-04-20T19:12:53.501Z,7.30
2019-04-20T19:15:55.995Z,7.00
2019-04-20T19:18:45.276Z,8.97
2019-04-20T19:21:04.180Z,8.17
2019-04-20T19:23:35.381Z,8.70
2019-04-20T19:26:09.640Z,9.90
2019-04-20T19:28:42.223Z,8.13
2019-04-20T19:31:17.118Z,8.40
2019-04-20T19:33:57.412Z,8.33
2019-04-20T19:36:19.758Z,8.73
2019-04-20T19:38:49.894Z,8.53
2019-04-20T19:41:23.200Z,10.10
2019-04-20T19:43:48.341Z,11.37
2019-04-20T19:48:49.405Z,14.73
2019-04-20T19:51:29.539Z,13.97
2019-04-20T19:54:04.864Z,16.20
2019-04-20T19:56:32.420Z,17.10
2019-04-20T19:59:00.481Z,16.97
2019-04-20T20:01:11.849Z,16.70
2019-04-20T20:03:41.748Z,15.57
2019-04-20T20:06:20.540Z,17.27
2019-04-20T20:08:42.308Z,17.97
2019-04-20T20:11:21.569Z,18.73
2019-04-20T20:13:49.671Z,18.50
2019-04-20T20:16:23.525Z,17.73
2019-04-20T20:18:59.869Z,19.40
2019-04-20T20:21:28.746Z,20.37
2019-04-20T20:23:47.866Z,21.07
2019-04-20T20:26:23.154Z,21.00
2019-04-20T20:29:02.608Z,21.27
2019-04-20T20:31:28.079Z,22.53
2019-04-20T20:34:03.303Z,22.47
2019-04-20T20:36:22.999Z,21.90
2019-04-20T20:38:52.461Z,23.77
2019-04-20T20:41:28.211Z,22.70
2019-04-20T20:44:03.079Z,24.13
2019-04-20T20:46:32.443Z,22.30
2019-04-20T20:49:09.401Z,22.80
2019-04-20T20:51:49.876Z,23.00
2019-04-20T20:54:04.545Z,22.90
2019-04-20T20:56:33.529Z,22.47
2019-04-20T20:59:09.008Z,21.73
2019-04-20T21:01:41.340Z,23.37
2019-04-20T21:04:00.584Z,23.77
2019-04-20T21:06:30.677Z,24.03
2019-04-20T21:09:01.472Z,25.33
2019-04-20T21:11:34.025Z,26.47
2019-04-20T21:14:01.339Z,26.30
2019-04-20T21:16:33.588Z,26.17
2019-04-20T21:19:18.632Z,26.50
2019-04-20T21:21:44.307Z,27.57
2019-04-20T21:24:13.961Z,27.87
2019-04-20T21:26:43.713Z,28.53
2019-04-20T21:29:11.329Z,29.10
2019-04-20T21:31:43.776Z,27.67
2019-04-20T21:34:16.156Z,31.70
2019-04-20T21:36:41.323Z,29.30
2019-04-20T21:39:22.030Z,28.93
2019-04-20T21:41:49.683Z,29.57
2019-04-20T21:44:16.742Z,31.17
2019-04-20T21:46:48.817Z,27.33
2019-04-20T21:49:31.198Z,28.87
2019-04-20T21:51:50.309Z,29.33
2019-04-20T21:54:14.258Z,28.70
2019-04-20T21:56:51.235Z,29.33
2019-04-20T21:59:23.544Z,28.00
2019-04-20T22:01:55.219Z,29.37
2019-04-20T22:04:16.334Z,30.27
2019-04-20T22:06:46.516Z,28.60
2019-04-20T22:09:15.386Z,28.80
2019-04-20T22:11:44.415Z,30.83
2019-04-20T22:14:18.621Z,30.67
2019-04-20T22:16:49.395Z,32.03
2019-04-20T22:19:28.446Z,30.23
2019-04-20T22:22:00.128Z,34.40
2019-04-20T22:24:37.199Z,31.90
2019-04-20T22:26:54.998Z,32.23
2019-04-20T22:29:18.284Z,32.10
2019-04-20T22:31:53.609Z,27.70
2019-04-20T22:34:20.806Z,27.97
2019-04-20T22:36:50.078Z,29.00
2019-04-20T22:39:32.209Z,28.57
2019-04-20T22:42:00.202Z,24.33
2019-04-20T22:44:30.549Z,24.53
2019-04-20T22:46:58.871Z,24.00
2019-04-20T22:49:47.380Z,26.50
2019-04-20T22:52:13.215Z,27.63
2019-04-20T22:54:44.685Z,31.00
2019-04-20T22:57:09.402Z,25.60
2019-04-20T22:59:48.444Z,24.90
2019-04-20T23:02:09.832Z,27.47
2019-04-20T23:04:40.320Z,26.47
2019-04-20T23:07:10.698Z,27.10
2019-04-20T23:09:50.304Z,26.40
2019-04-20T23:12:15.778Z,28.20
2019-04-20T23:14:40.915Z,27.00
2019-04-20T23:17:10.394Z,25.27
2019-04-20T23:19:47.220Z,26.23
2019-04-20T23:22:13.360Z,26.33
2019-04-20T23:24:39.394Z,27.23
2019-04-20T23:27:16.367Z,26.13
2019-04-20T23:29:41.700Z,25.33
2019-04-20T23:32:12.632Z,25.20
2019-04-20T23:34:42.859Z,27.77
2019-04-20T23:37:18.677Z,24.80
2019-04-20T23:39:45.010Z,24.37
2019-04-20T23:42:17.818Z,24.70
2019-04-20T23:45:03.748Z,23.33
2019-04-20T23:47:46.435Z,23.40
2019-04-20T23:50:30.594Z,23.00
2019-04-20T23:53:02.465Z,22.63
2019-04-20T23:55:15.174Z,22.83
2019-04-20T23:57:45.975Z,25.60
